createdAt,value
2024-04-16T00:00:23.519Z,100.00
2024-04-16T00:03:17.575Z,100.00
2024-04-16T00:06:04.489Z,100.00
2024-04-16T00:08:37.629Z,100.00
2024-04-16T00:11:24.532Z,100.00
2024-04-16T00:13:57.642Z,100.00
2024-04-16T00:16:44.667Z,100.00
2024-04-16T00:19:18.591Z,100.00
2024-04-16T00:22:05.528Z,100.00
2024-04-16T00:24:38.616Z,100.00
2024-04-16T00:27:25.507Z,100.00
2024-04-16T00:30:00.060Z,100.00
2024-04-16T00:32:46.641Z,100.00
2024-04-16T00:35:20.634Z,100.00
2024-04-16T00:38:14.517Z,100.00
2024-04-16T00:41:08.534Z,100.00
2024-04-16T00:44:02.531Z,100.00
2024-04-16T00:46:49.594Z,100.00
2024-04-16T00:49:23.756Z,100.00
2024-04-16T00:52:12.566Z,100.00
2024-04-16T00:54:46.636Z,100.00
2024-04-16T00:57:33.512Z,100.00
2024-04-16T01:00:06.625Z,100.00
2024-04-16T01:02:53.529Z,100.00
2024-04-16T01:05:26.624Z,100.00
2024-04-16T01:08:15.540Z,100.00
2024-04-16T01:10:49.618Z,100.00
2024-04-16T01:13:36.572Z,100.00
2024-04-16T01:16:10.652Z,100.00
2024-04-16T01:18:57.546Z,100.00
2024-04-16T01:21:30.640Z,100.00
2024-04-16T01:24:10.554Z,100.00
2024-04-16T01:26:50.561Z,100.00
2024-04-16T01:29:30.636Z,100.00
2024-04-16T01:32:10.616Z,100.00
2024-04-16T01:34:50.654Z,100.00
2024-04-16T01:37:44.547Z,100.00
2024-04-16T01:40:38.633Z,100.00
2024-04-16T01:43:25.545Z,100.00
2024-04-16T01:45:58.716Z,100.00
2024-04-16T01:48:45.533Z,100.00
2024-04-16T01:51:18.640Z,100.00
2024-04-16T01:54:05.536Z,100.00
2024-04-16T01:56:38.640Z,100.00
2024-04-16T01:59:25.552Z,100.00
2024-04-16T02:01:58.666Z,100.00
2024-04-16T02:04:45.627Z,100.00
2024-04-16T02:07:18.700Z,100.00
2024-04-16T02:10:05.581Z,100.00
2024-04-16T02:12:45.589Z,100.00
2024-04-16T02:15:39.548Z,100.00
2024-04-16T02:18:26.650Z,100.00
2024-04-16T02:20:59.709Z,100.00
2024-04-16T02:23:49.612Z,100.00
2024-04-16T02:26:22.658Z,100.00
2024-04-16T02:29:09.561Z,100.00
2024-04-16T02:31:42.887Z,100.00
2024-04-16T02:34:29.587Z,100.00
2024-04-16T02:37:02.756Z,100.00
2024-04-16T02:39:49.595Z,100.00
2024-04-16T02:42:22.667Z,100.00
2024-04-16T02:45:09.568Z,100.00
2024-04-16T02:47:42.764Z,100.00
2024-04-16T02:50:29.596Z,100.00
2024-04-16T02:53:02.679Z,100.00
2024-04-16T02:55:49.566Z,100.00
2024-04-16T02:58:22.748Z,100.00
2024-04-16T03:01:13.753Z,100.00
2024-04-16T03:04:00.648Z,100.00
2024-04-16T03:06:54.570Z,100.00
2024-04-16T03:09:43.617Z,100.00
2024-04-16T03:12:16.671Z,100.00
2024-04-16T03:15:03.595Z,100.00
2024-04-16T03:17:36.828Z,100.00
2024-04-16T03:20:23.601Z,100.00
2024-04-16T03:22:59.736Z,100.00
2024-04-16T03:25:49.599Z,100.00
2024-04-16T03:28:22.833Z,100.00
2024-04-16T03:31:09.635Z,100.00
2024-04-16T03:33:43.706Z,100.00
2024-04-16T03:36:37.612Z,100.00
2024-04-16T03:39:24.598Z,100.00
2024-04-16T03:41:57.740Z,100.00
2024-04-16T03:44:44.611Z,100.00
2024-04-16T03:47:17.748Z,100.00
2024-04-16T03:50:04.632Z,100.00
2024-04-16T03:52:37.800Z,100.00
2024-04-16T03:55:24.674Z,100.00
2024-04-16T03:57:58.231Z,100.00
2024-04-16T04:01:04.857Z,100.00
2024-04-16T04:03:43.348Z,100.00
2024-04-16T04:06:30.601Z,100.00
2024-04-16T04:09:03.732Z,100.00
2024-04-16T04:11:50.602Z,100.00
2024-04-16T04:14:23.779Z,100.00
2024-04-16T04:17:10.654Z,100.00
2024-04-16T04:19:43.809Z,100.00
2024-04-16T04:22:30.656Z,100.00
2024-04-16T04:25:03.754Z,100.00
2024-04-16T04:27:50.637Z,100.00
2024-04-16T04:30:31.790Z,100.00
2024-04-16T04:33:11.671Z,100.00
2024-04-16T04:35:58.614Z,100.00
2024-04-16T04:38:52.604Z,100.00
2024-04-16T04:41:39.629Z,100.00
2024-04-16T04:44:12.803Z,100.00
2024-04-16T04:47:00.694Z,100.00
2024-04-16T04:49:33.841Z,100.00
2024-04-16T04:52:20.646Z,100.00
2024-04-16T04:54:53.757Z,100.00
2024-04-16T04:57:49.636Z,100.00
2024-04-16T05:00:44.642Z,100.00
2024-04-16T05:03:31.660Z,100.00
2024-04-16T05:06:07.419Z,100.00
2024-04-16T05:08:54.656Z,100.00
2024-04-16T05:11:27.925Z,100.00
2024-04-16T05:14:17.629Z,99.20
2024-04-16T05:17:04.642Z,98.76
2024-04-16T05:19:58.675Z,100.00
2024-04-16T05:22:46.943Z,99.18
2024-04-16T05:25:20.807Z,99.44
2024-04-16T05:28:07.709Z,99.32
2024-04-16T05:30:42.324Z,96.75
2024-04-16T05:33:29.704Z,95.62
2024-04-16T05:36:05.939Z,95.46
2024-04-16T05:38:53.707Z,94.36
2024-04-16T05:41:26.785Z,95.27
2024-04-16T05:44:13.721Z,95.95
2024-04-16T05:46:46.820Z,95.65
2024-04-16T05:49:33.719Z,95.06
2024-04-16T05:52:14.719Z,95.46
2024-04-16T05:55:08.699Z,93.93
2024-04-16T05:57:55.718Z,95.06
2024-04-16T06:00:28.787Z,95.12
2024-04-16T06:03:15.718Z,95.46
2024-04-16T06:05:59.041Z,95.75
2024-04-16T06:08:40.673Z,95.98
2024-04-16T06:11:23.726Z,95.18
2024-04-16T06:14:03.810Z,95.57
2024-04-16T06:16:43.799Z,95.85
2024-04-16T06:19:23.735Z,96.53
2024-04-16T06:22:03.866Z,95.52
2024-04-16T06:24:43.705Z,96.51
2024-04-16T06:27:23.770Z,96.99
2024-04-16T06:30:10.647Z,96.48
2024-04-16T06:32:46.579Z,95.13
2024-04-16T06:35:33.714Z,94.20
2024-04-16T06:38:06.864Z,95.21
2024-04-16T06:40:53.733Z,95.00
2024-04-16T06:43:33.723Z,94.03
2024-04-16T06:46:20.733Z,93.81
2024-04-16T06:49:05.143Z,93.41
2024-04-16T06:51:59.758Z,88.47
2024-04-16T06:54:39.705Z,88.02
2024-04-16T06:57:33.743Z,86.89
2024-04-16T07:00:20.738Z,87.02
2024-04-16T07:02:53.845Z,84.08
2024-04-16T07:05:40.727Z,86.79
2024-04-16T07:08:14.855Z,86.13
2024-04-16T07:11:01.751Z,84.75
2024-04-16T07:13:37.414Z,87.07
2024-04-16T07:16:24.770Z,84.79
2024-04-16T07:18:57.862Z,86.08
2024-04-16T07:21:44.691Z,86.43
2024-04-16T07:24:17.867Z,85.90
2024-04-16T07:27:04.702Z,85.72
2024-04-16T07:29:37.825Z,88.03
2024-04-16T07:32:40.085Z,85.88
2024-04-16T07:35:26.698Z,86.60
2024-04-16T07:37:59.841Z,87.07
2024-04-16T07:40:46.733Z,87.41
2024-04-16T07:43:20.190Z,86.82
2024-04-16T07:46:06.743Z,88.27
2024-04-16T07:48:42.075Z,87.17
2024-04-16T07:51:28.701Z,88.27
2024-04-16T07:54:01.902Z,87.80
2024-04-16T07:56:48.790Z,87.32
2024-04-16T07:59:21.834Z,87.28
2024-04-16T08:02:08.894Z,87.01
2024-04-16T08:04:42.963Z,86.80
2024-04-16T08:07:32.809Z,87.24
2024-04-16T08:10:05.894Z,85.81
2024-04-16T08:12:52.708Z,86.13
2024-04-16T08:15:32.769Z,86.39
2024-04-16T08:18:22.004Z,85.30
2024-04-16T08:21:02.805Z,86.59
2024-04-16T08:23:49.757Z,87.45
2024-04-16T08:26:25.556Z,88.73
2024-04-16T08:29:12.816Z,89.71
2024-04-16T08:31:45.961Z,90.11
2024-04-16T08:34:32.841Z,91.00
2024-04-16T08:37:12.812Z,89.87
2024-04-16T08:40:06.855Z,87.61
2024-04-16T08:42:53.984Z,89.93
2024-04-16T08:45:29.943Z,88.87
2024-04-16T08:48:17.836Z,87.77
2024-04-16T08:50:52.871Z,88.08
2024-04-16T08:53:40.782Z,87.60
2024-04-16T08:56:21.763Z,88.45
2024-04-16T08:59:09.771Z,88.03
2024-04-16T09:01:50.892Z,86.80
2024-04-16T09:04:44.968Z,86.46
2024-04-16T09:07:27.829Z,88.12
2024-04-16T09:10:28.914Z,85.17
2024-04-16T09:13:17.829Z,86.26
2024-04-16T09:15:51.881Z,86.95
2024-04-16T09:18:40.806Z,85.25
2024-04-16T09:21:13.900Z,87.01
2024-04-16T09:24:03.846Z,84.00
2024-04-16T09:26:48.847Z,83.07
2024-04-16T09:29:35.778Z,84.01
2024-04-16T09:32:17.872Z,84.29
2024-04-16T09:35:11.792Z,83.79
2024-04-16T09:38:12.800Z,85.03
2024-04-16T09:41:07.848Z,83.91
2024-04-16T09:43:55.770Z,83.45
2024-04-16T09:46:30.965Z,78.59
2024-04-16T09:49:21.817Z,79.31
2024-04-16T09:51:57.158Z,80.89
2024-04-16T09:54:47.794Z,81.38
2024-04-16T09:57:23.123Z,80.29
2024-04-16T10:00:10.227Z,77.93
2024-04-16T10:02:46.962Z,78.91
2024-04-16T10:05:36.319Z,78.13
2024-04-16T10:08:22.880Z,76.12
2024-04-16T10:11:01.278Z,77.57
2024-04-16T10:13:53.807Z,78.31
2024-04-16T10:16:27.847Z,77.94
2024-04-16T10:19:21.654Z,77.43
2024-04-16T10:22:02.144Z,77.36
2024-04-16T10:24:48.803Z,76.82
2024-04-16T10:27:25.855Z,74.88
2024-04-16T10:30:23.809Z,76.42
2024-04-16T10:32:58.541Z,75.24
2024-04-16T10:35:50.380Z,74.55
2024-04-16T10:38:27.450Z,75.92
2024-04-16T10:41:17.788Z,77.03
2024-04-16T10:43:51.415Z,76.16
2024-04-16T10:46:38.977Z,78.28
2024-04-16T10:49:13.261Z,76.42
2024-04-16T10:51:59.853Z,78.13
2024-04-16T10:54:45.943Z,76.49
2024-04-16T10:57:33.800Z,76.65
2024-04-16T11:00:14.900Z,76.91
2024-04-16T11:02:55.164Z,75.93
2024-04-16T11:05:34.855Z,74.85
2024-04-16T11:08:15.893Z,76.06
2024-04-16T11:10:57.994Z,76.24
2024-04-16T11:13:41.007Z,75.60
2024-04-16T11:16:20.887Z,77.43
2024-04-16T11:19:01.022Z,76.92
2024-04-16T11:21:41.864Z,77.76
2024-04-16T11:24:21.992Z,77.09
2024-04-16T11:27:01.849Z,78.58
2024-04-16T11:29:41.899Z,77.85
2024-04-16T11:32:21.969Z,78.10
2024-04-16T11:35:02.014Z,79.17
2024-04-16T11:37:50.930Z,77.24
2024-04-16T11:40:37.945Z,79.05
2024-04-16T11:43:11.221Z,78.56
2024-04-16T11:45:57.867Z,79.38
2024-04-16T11:48:32.342Z,79.11
2024-04-16T11:51:21.866Z,79.56
2024-04-16T11:53:55.215Z,77.83
2024-04-16T11:56:41.859Z,78.70
2024-04-16T11:59:21.859Z,78.58
2024-04-16T12:02:12.791Z,78.00
2024-04-16T12:04:46.580Z,77.63
2024-04-16T12:07:33.899Z,77.71
2024-04-16T12:10:27.872Z,75.73
2024-04-16T12:13:14.924Z,77.28
2024-04-16T12:15:54.952Z,77.10
2024-04-16T12:18:41.856Z,76.02
2024-04-16T12:21:14.982Z,76.82
2024-04-16T12:24:01.858Z,76.95
2024-04-16T12:26:34.967Z,76.61
2024-04-16T12:29:21.905Z,77.21
2024-04-16T12:32:05.024Z,76.28
2024-04-16T12:34:48.294Z,76.53
2024-04-16T12:37:34.939Z,74.68
2024-04-16T12:40:28.898Z,74.79
2024-04-16T12:43:15.927Z,73.92
2024-04-16T12:45:49.019Z,72.76
2024-04-16T12:48:35.979Z,72.53
2024-04-16T12:51:09.985Z,70.83
2024-04-16T12:53:56.879Z,71.85
2024-04-16T12:56:29.962Z,72.28
2024-04-16T12:59:16.935Z,72.70
2024-04-16T13:01:51.066Z,73.20
2024-04-16T13:04:37.912Z,72.90
2024-04-16T13:07:11.074Z,73.36
2024-04-16T13:09:57.913Z,73.53
2024-04-16T13:12:34.150Z,73.54
2024-04-16T13:15:20.947Z,72.06
2024-04-16T13:18:01.137Z,72.14
2024-04-16T13:20:55.980Z,72.07
2024-04-16T13:23:42.974Z,71.83
2024-04-16T13:26:15.985Z,70.47
2024-04-16T13:29:02.923Z,72.48
2024-04-16T13:31:36.137Z,72.07
2024-04-16T13:34:23.944Z,71.94
2024-04-16T13:37:04.045Z,71.45
2024-04-16T13:39:43.885Z,70.15
2024-04-16T13:42:23.999Z,71.11
2024-04-16T13:45:03.942Z,70.75
2024-04-16T13:47:44.165Z,69.47
2024-04-16T13:50:23.919Z,68.62
2024-04-16T13:53:10.945Z,69.57
2024-04-16T13:55:51.974Z,70.84
2024-04-16T13:58:32.080Z,69.00
2024-04-16T14:01:12.017Z,70.33
2024-04-16T14:03:59.906Z,70.40
2024-04-16T14:06:34.009Z,70.25
2024-04-16T14:09:24.429Z,70.70
2024-04-16T14:11:58.271Z,70.99
2024-04-16T14:14:44.992Z,70.53
2024-04-16T14:17:19.710Z,70.54
2024-04-16T14:20:08.843Z,69.58
2024-04-16T14:22:42.422Z,69.14
2024-04-16T14:25:33.945Z,70.44
2024-04-16T14:28:08.263Z,70.48
2024-04-16T14:30:55.914Z,69.37
2024-04-16T14:33:29.355Z,70.35
2024-04-16T14:36:15.944Z,70.05
2024-04-16T14:39:12.655Z,70.28
2024-04-16T14:42:08.945Z,70.22
2024-04-16T14:44:55.918Z,70.32
2024-04-16T14:47:29.099Z,69.59
2024-04-16T14:50:24.839Z,69.78
2024-04-16T14:52:58.158Z,68.97
2024-04-16T14:55:45.012Z,69.25
2024-04-16T14:58:18.083Z,71.02
2024-04-16T15:01:04.981Z,70.30
2024-04-16T15:03:39.101Z,70.35
2024-04-16T15:06:26.980Z,69.99
2024-04-16T15:09:03.281Z,70.34
2024-04-16T15:11:49.951Z,71.05
2024-04-16T15:14:23.091Z,71.34
2024-04-16T15:17:10.024Z,71.21
2024-04-16T15:19:56.023Z,71.57
2024-04-16T15:22:35.935Z,72.46
2024-04-16T15:25:16.053Z,71.73
2024-04-16T15:27:55.951Z,69.33
2024-04-16T15:30:37.542Z,69.77
2024-04-16T15:33:18.039Z,69.00
2024-04-16T15:36:06.946Z,69.08
2024-04-16T15:38:53.952Z,69.65
2024-04-16T15:41:40.949Z,69.65
2024-04-16T15:44:14.096Z,70.59
2024-04-16T15:47:01.952Z,70.21
2024-04-16T15:49:35.083Z,70.85
2024-04-16T15:52:21.981Z,70.20
2024-04-16T15:54:56.042Z,71.45
2024-04-16T15:57:43.979Z,71.06
2024-04-16T16:00:18.047Z,70.88
2024-04-16T16:03:05.022Z,71.72
2024-04-16T16:05:39.075Z,72.23
2024-04-16T16:08:25.974Z,72.04
2024-04-16T16:10:59.212Z,71.67
2024-04-16T16:13:45.973Z,70.84
2024-04-16T16:16:19.081Z,71.38
2024-04-16T16:19:05.971Z,71.37
2024-04-16T16:21:39.138Z,72.30
2024-04-16T16:24:25.967Z,72.29
2024-04-16T16:26:59.089Z,71.31
2024-04-16T16:29:47.012Z,71.85
2024-04-16T16:32:20.135Z,72.29
2024-04-16T16:35:11.965Z,72.36
2024-04-16T16:37:52.063Z,71.80
2024-04-16T16:40:46.028Z,69.57
2024-04-16T16:43:33.107Z,71.16
2024-04-16T16:46:10.069Z,72.68
2024-04-16T16:48:56.991Z,72.55
2024-04-16T16:51:37.016Z,72.76
2024-04-16T16:54:23.993Z,73.02
2024-04-16T16:56:57.079Z,74.06
2024-04-16T16:59:43.973Z,73.52
2024-04-16T17:02:18.026Z,73.88
2024-04-16T17:05:04.974Z,74.94
2024-04-16T17:07:38.121Z,75.91
2024-04-16T17:10:25.066Z,75.73
2024-04-16T17:13:05.090Z,75.56
2024-04-16T17:15:45.045Z,76.78
2024-04-16T17:18:25.319Z,76.36
2024-04-16T17:21:06.976Z,78.09
2024-04-16T17:23:47.248Z,77.74
2024-04-16T17:26:32.989Z,77.17
2024-04-16T17:29:13.127Z,76.63
2024-04-16T17:31:53.053Z,77.68
2024-04-16T17:34:33.056Z,78.61
2024-04-16T17:37:06.096Z,78.78
2024-04-16T17:39:59.998Z,78.76
2024-04-16T17:42:47.008Z,79.14
2024-04-16T17:45:20.113Z,78.62
2024-04-16T17:48:00.099Z,78.94
2024-04-16T17:50:39.997Z,79.05
2024-04-16T17:53:13.180Z,78.91
2024-04-16T17:56:01.024Z,78.62
2024-04-16T17:58:41.216Z,79.11
2024-04-16T18:01:22.152Z,79.74
2024-04-16T18:04:03.048Z,80.17
2024-04-16T18:06:46.016Z,80.44
2024-04-16T18:09:26.996Z,81.32
2024-04-16T18:12:07.041Z,81.24
2024-04-16T18:14:47.148Z,81.31
2024-04-16T18:17:27.099Z,81.36
2024-04-16T18:20:07.598Z,81.85
2024-04-16T18:22:47.089Z,82.06
2024-04-16T18:25:20.420Z,82.45
2024-04-16T18:28:07.048Z,82.23
2024-04-16T18:30:48.048Z,82.81
2024-04-16T18:33:28.231Z,83.34
2024-04-16T18:36:09.003Z,83.74
2024-04-16T18:38:56.025Z,83.44
2024-04-16T18:41:50.060Z,84.06
2024-04-16T18:44:44.019Z,84.09
2024-04-16T18:47:31.035Z,84.44
2024-04-16T18:50:04.159Z,84.66
2024-04-16T18:52:51.093Z,85.13
2024-04-16T18:55:24.166Z,85.00
2024-04-16T18:58:12.018Z,84.84
2024-04-16T19:00:45.184Z,85.29
2024-04-16T19:03:33.055Z,84.49
2024-04-16T19:06:06.209Z,84.94
2024-04-16T19:08:53.035Z,85.64
2024-04-16T19:11:26.135Z,85.42
2024-04-16T19:14:14.035Z,85.65
2024-04-16T19:16:50.052Z,85.96
2024-04-16T19:19:37.064Z,86.00
2024-04-16T19:22:11.146Z,85.61
2024-04-16T19:24:58.053Z,86.16
2024-04-16T19:27:45.072Z,86.42
2024-04-16T19:30:18.461Z,87.32
2024-04-16T19:33:05.090Z,87.00
2024-04-16T19:35:39.678Z,87.98
2024-04-16T19:38:27.102Z,87.96
2024-04-16T19:41:23.082Z,87.65
2024-04-16T19:44:10.037Z,87.81
2024-04-16T19:46:43.173Z,88.23
2024-04-16T19:49:30.100Z,88.89
2024-04-16T19:52:03.187Z,88.88
2024-04-16T19:54:50.057Z,89.34
2024-04-16T19:57:23.179Z,89.43
2024-04-16T20:00:13.062Z,90.05
2024-04-16T20:02:46.157Z,89.68
2024-04-16T20:05:33.095Z,90.37
2024-04-16T20:08:13.070Z,90.45
2024-04-16T20:11:00.107Z,91.41
2024-04-16T20:13:41.195Z,91.71
2024-04-16T20:16:21.118Z,90.92
2024-04-16T20:19:05.238Z,91.18
2024-04-16T20:21:46.058Z,91.58
2024-04-16T20:24:41.089Z,91.52
2024-04-16T20:27:35.103Z,91.61
2024-04-16T20:30:22.065Z,91.84
2024-04-16T20:33:02.182Z,91.61
2024-04-16T20:35:49.057Z,92.40
2024-04-16T20:38:22.201Z,91.97
2024-04-16T20:41:09.198Z,92.50
2024-04-16T20:43:42.271Z,92.69
2024-04-16T20:46:29.108Z,92.97
2024-04-16T20:49:02.214Z,92.67
2024-04-16T20:51:50.088Z,93.64
2024-04-16T20:54:23.351Z,93.68
2024-04-16T20:57:10.085Z,93.40
2024-04-16T20:59:50.192Z,93.80
2024-04-16T21:02:34.114Z,93.91
2024-04-16T21:05:14.280Z,93.59
2024-04-16T21:07:54.115Z,93.99
2024-04-16T21:10:34.237Z,94.10
2024-04-16T21:13:21.128Z,94.34
2024-04-16T21:16:02.461Z,93.93
2024-04-16T21:18:49.088Z,94.66
2024-04-16T21:21:29.095Z,94.34
2024-04-16T21:24:09.580Z,94.60
2024-04-16T21:26:56.091Z,94.56
2024-04-16T21:29:29.443Z,94.81
2024-04-16T21:32:16.140Z,95.14
2024-04-16T21:34:49.710Z,95.31
2024-04-16T21:37:37.134Z,94.86
2024-04-16T21:40:10.497Z,95.27
2024-04-16T21:42:57.100Z,95.79
2024-04-16T21:45:30.647Z,95.28
2024-04-16T21:48:17.102Z,95.48
2024-04-16T21:50:55.879Z,95.44
2024-04-16T21:53:43.090Z,95.23
2024-04-16T21:56:16.524Z,96.01
2024-04-16T21:59:10.098Z,95.93
2024-04-16T22:02:04.287Z,95.79
2024-04-16T22:04:44.116Z,96.27
2024-04-16T22:07:24.107Z,96.00
2024-04-16T22:09:57.209Z,96.31
2024-04-16T22:12:44.098Z,96.85
2024-04-16T22:15:17.258Z,97.45
2024-04-16T22:18:04.289Z,97.19
2024-04-16T22:20:38.222Z,97.66
2024-04-16T22:23:25.108Z,97.87
2024-04-16T22:26:25.199Z,98.07
2024-04-16T22:29:12.119Z,97.82
2024-04-16T22:31:45.213Z,97.88
2024-04-16T22:34:32.184Z,97.91
2024-04-16T22:37:05.278Z,98.21
2024-04-16T22:39:52.100Z,98.39
2024-04-16T22:42:25.243Z,98.51
2024-04-16T22:45:12.104Z,98.55
2024-04-16T22:47:45.301Z,98.16
2024-04-16T22:50:35.425Z,98.93
2024-04-16T22:53:10.353Z,98.51
2024-04-16T22:55:58.182Z,98.96
2024-04-16T22:58:38.278Z,98.95
2024-04-16T23:01:18.182Z,98.59
2024-04-16T23:04:05.215Z,98.63
2024-04-16T23:06:59.159Z,98.78
2024-04-16T23:09:46.142Z,98.92
2024-04-16T23:12:19.249Z,98.90
2024-04-16T23:15:06.149Z,98.89
2024-04-16T23:17:42.333Z,99.27
2024-04-16T23:20:29.148Z,99.16
2024-04-16T23:23:03.421Z,99.14
2024-04-16T23:25:50.146Z,99.15
2024-04-16T23:28:30.282Z,99.07
2024-04-16T23:31:10.131Z,99.42
2024-04-16T23:33:50.256Z,99.27
2024-04-16T23:36:30.138Z,99.32
2024-04-16T23:39:24.153Z,99.59
2024-04-16T23:42:11.148Z,99.38
2024-04-16T23:44:44.237Z,99.61
2024-04-16T23:47:31.275Z,99.97
2024-04-16T23:50:05.265Z,99.68
2024-04-16T23:52:53.162Z,100.00
2024-04-16T23:55:33.176Z,99.90
2024-04-16T23:58:27.159Z,100.00
